createdAt,value
2023-12-04T00:03:45.065Z,20.40
2023-12-04T00:09:46.902Z,20.10
2023-12-04T00:15:48.761Z,20.63
2023-12-04T00:21:50.709Z,18.90
2023-12-04T00:27:52.602Z,19.15
2023-12-04T00:33:54.488Z,19.83
2023-12-04T00:39:56.375Z,18.17
2023-12-04T00:45:58.397Z,19.63
2023-12-04T00:52:00.339Z,20.42
2023-12-04T00:58:02.196Z,17.98
2023-12-04T01:04:04.305Z,19.67
2023-12-04T01:10:06.657Z,18.70
2023-12-04T01:16:09.369Z,19.02
2023-12-04T01:22:11.265Z,18.40
2023-12-04T01:28:13.021Z,18.45
2023-12-04T01:34:14.800Z,17.15
2023-12-04T01:40:16.764Z,17.00
2023-12-04T01:46:19.166Z,16.15
2023-12-04T01:52:21.027Z,16.05
2023-12-04T01:58:22.876Z,16.30
2023-12-04T02:04:24.876Z,16.42
2023-12-04T02:10:26.782Z,16.08
2023-12-04T02:16:30.440Z,15.52
2023-12-04T02:22:32.274Z,15.15
2023-12-04T02:28:37.073Z,14.45
2023-12-04T02:34:42.702Z,15.25
2023-12-04T02:40:44.797Z,14.50
2023-12-04T02:46:47.993Z,14.98
2023-12-04T02:52:49.778Z,15.25
2023-12-04T02:58:51.576Z,15.35
2023-12-04T03:04:54.739Z,15.23
2023-12-04T03:10:56.574Z,14.68
2023-12-04T03:16:58.513Z,14.93
2023-12-04T03:23:00.327Z,14.60
2023-12-04T03:29:02.246Z,14.52
2023-12-04T03:35:04.293Z,13.85
2023-12-04T03:41:06.286Z,13.63
2023-12-04T03:47:08.133Z,14.57
2023-12-04T03:53:09.910Z,13.85
2023-12-04T03:59:12.051Z,13.52
2023-12-04T04:05:13.917Z,14.00
2023-12-04T04:11:15.782Z,12.20
2023-12-04T04:17:17.580Z,13.75
2023-12-04T04:23:19.324Z,13.98
2023-12-04T04:29:21.172Z,13.02
2023-12-04T04:35:22.952Z,13.60
2023-12-04T04:41:24.713Z,13.40
2023-12-04T04:47:26.516Z,13.07
2023-12-04T04:53:28.302Z,12.98
2023-12-04T04:59:31.483Z,12.18
2023-12-04T05:05:33.247Z,12.65
2023-12-04T05:11:35.085Z,12.65
2023-12-04T05:17:36.894Z,13.10
2023-12-04T05:23:41.848Z,12.88
2023-12-04T05:29:43.662Z,11.93
2023-12-04T05:35:45.558Z,12.55
2023-12-04T05:41:47.428Z,13.90
2023-12-04T05:47:49.248Z,13.75
2023-12-04T05:53:51.030Z,13.02
2023-12-04T05:59:52.813Z,12.80
2023-12-04T06:05:57.766Z,13.35
2023-12-04T06:12:07.550Z,13.13
2023-12-04T06:18:09.550Z,13.40
2023-12-04T06:24:12.109Z,12.52
2023-12-04T06:30:14.709Z,12.80
2023-12-04T06:36:18.576Z,12.63
2023-12-04T06:42:20.666Z,13.30
2023-12-04T06:48:22.827Z,13.05
2023-12-04T06:54:24.669Z,12.85
2023-12-04T07:00:27.025Z,12.43
2023-12-04T07:06:28.864Z,12.52
2023-12-04T07:12:30.627Z,12.98
2023-12-04T07:18:32.479Z,12.93
2023-12-04T07:24:34.435Z,13.32
2023-12-04T07:30:36.303Z,12.55
2023-12-04T07:36:38.133Z,12.80
2023-12-04T07:42:40.129Z,12.70
2023-12-04T07:48:43.856Z,11.85
2023-12-04T07:54:45.806Z,12.25
2023-12-04T08:00:47.788Z,11.45
2023-12-04T08:06:49.941Z,11.20
2023-12-04T08:12:52.278Z,12.00
2023-12-04T08:18:54.273Z,11.98
2023-12-04T08:24:56.113Z,11.50
2023-12-04T08:30:57.893Z,11.35
2023-12-04T08:36:59.803Z,10.85
2023-12-04T08:43:01.732Z,10.73
2023-12-04T08:49:03.647Z,10.20
2023-12-04T08:55:07.316Z,10.98
2023-12-04T09:01:09.319Z,11.02
2023-12-04T09:08:26.620Z,10.48
2023-12-04T09:13:33.901Z,10.48
2023-12-04T09:19:36.162Z,10.70
2023-12-04T09:25:38.248Z,10.25
2023-12-04T09:31:40.115Z,10.43
2023-12-04T09:37:41.957Z,10.48
2023-12-04T09:43:45.307Z,9.63
2023-12-04T09:49:47.920Z,10.70
2023-12-04T09:55:50.740Z,9.60
2023-12-04T10:01:53.257Z,10.40
2023-12-04T10:07:55.112Z,10.25
2023-12-04T10:13:59.880Z,9.90
2023-12-04T10:20:16.996Z,9.50
2023-12-04T10:26:19.085Z,9.98
2023-12-04T10:32:24.347Z,10.13
2023-12-04T10:38:28.137Z,9.88
2023-12-04T10:44:32.223Z,9.90
2023-12-04T10:50:41.078Z,10.15
2023-12-04T10:56:45.829Z,9.32
2023-12-04T11:02:49.640Z,9.02
2023-12-04T11:08:58.296Z,9.23
2023-12-04T11:15:05.875Z,8.85
2023-12-04T11:21:12.431Z,9.05
2023-12-04T11:27:17.198Z,8.75
2023-12-04T11:33:19.878Z,9.18
2023-12-04T11:39:21.900Z,10.20
2023-12-04T11:45:23.704Z,12.80
2023-12-04T11:51:41.054Z,9.43
2023-12-04T11:57:43.559Z,9.57
2023-12-04T12:03:45.703Z,9.52
2023-12-04T12:09:49.610Z,9.45
2023-12-04T12:15:53.725Z,9.77
2023-12-04T12:21:55.869Z,10.30
2023-12-04T12:27:58.216Z,9.15
2023-12-04T12:34:00.316Z,9.57
2023-12-04T12:40:02.549Z,8.68
2023-12-04T12:46:07.632Z,9.02
2023-12-04T12:52:11.847Z,9.50
2023-12-04T12:58:23.025Z,9.38
2023-12-04T13:04:24.931Z,8.82
2023-12-04T13:10:26.851Z,8.27
2023-12-04T13:16:28.664Z,8.00
2023-12-04T13:22:30.588Z,8.13
2023-12-04T13:28:36.444Z,7.53
2023-12-04T13:34:43.612Z,7.53
2023-12-04T13:41:00.433Z,7.63
2023-12-04T13:47:02.350Z,6.85
2023-12-04T13:53:05.114Z,7.32
2023-12-04T13:59:08.762Z,7.45
2023-12-04T14:05:10.744Z,7.15
2023-12-04T14:11:13.397Z,7.40
2023-12-04T14:17:15.354Z,7.20
2023-12-04T14:23:17.538Z,7.35
2023-12-04T14:29:19.357Z,7.35
2023-12-04T14:35:21.486Z,7.30
2023-12-04T14:41:23.288Z,6.85
2023-12-04T14:47:25.258Z,7.30
2023-12-04T14:53:31.924Z,8.13
2023-12-04T14:59:39.618Z,8.00
2023-12-04T15:06:01.827Z,7.40
2023-12-04T15:12:22.087Z,7.25
2023-12-04T15:18:45.736Z,6.80
2023-12-04T15:24:47.670Z,6.20
2023-12-04T15:30:50.404Z,6.20
2023-12-04T15:36:52.495Z,6.50
2023-12-04T15:42:54.455Z,6.05
2023-12-04T15:48:57.310Z,5.80
2023-12-04T15:54:59.282Z,5.65
2023-12-04T16:01:02.017Z,5.05
2023-12-04T16:07:04.081Z,5.63
2023-12-04T16:13:06.175Z,5.10
2023-12-04T16:19:08.197Z,5.20
2023-12-04T16:25:10.968Z,5.07
2023-12-04T16:31:13.898Z,5.18
2023-12-04T16:37:16.125Z,5.20
2023-12-04T16:43:18.478Z,4.85
2023-12-04T16:49:20.445Z,4.82
2023-12-04T16:55:22.490Z,4.57
2023-12-04T17:01:24.495Z,5.07
2023-12-04T17:07:26.752Z,4.88
2023-12-04T17:13:28.551Z,5.00
2023-12-04T17:19:32.699Z,5.20
2023-12-04T17:25:36.663Z,4.75
2023-12-04T17:31:40.062Z,4.90
2023-12-04T17:37:42.254Z,5.25
2023-12-04T17:43:44.118Z,4.70
2023-12-04T17:49:49.582Z,5.25
2023-12-04T17:55:51.457Z,5.13
2023-12-04T18:01:53.575Z,5.10
2023-12-04T18:07:55.528Z,5.30
2023-12-04T18:13:57.326Z,5.63
2023-12-04T18:19:59.228Z,5.43
2023-12-04T18:26:01.933Z,5.15
2023-12-04T18:32:05.477Z,4.82
2023-12-04T18:38:27.426Z,5.35
2023-12-04T18:44:29.511Z,4.90
2023-12-04T18:50:33.691Z,5.30
2023-12-04T18:56:35.576Z,4.75
2023-12-04T19:02:37.624Z,4.97
2023-12-04T19:08:40.289Z,4.90
2023-12-04T19:14:42.331Z,5.00
2023-12-04T19:20:44.982Z,4.97
2023-12-04T19:26:48.405Z,5.60
2023-12-04T19:32:50.353Z,5.65
2023-12-04T19:38:52.172Z,5.28
2023-12-04T19:44:57.133Z,5.57
2023-12-04T19:51:00.028Z,5.53
2023-12-04T19:57:04.423Z,5.72
2023-12-04T20:03:06.689Z,4.85
2023-12-04T20:09:09.492Z,5.63
2023-12-04T20:15:11.948Z,5.30
2023-12-04T20:21:16.051Z,5.60
2023-12-04T20:27:18.463Z,5.40
2023-12-04T20:33:21.524Z,6.00
2023-12-04T20:39:23.512Z,5.68
2023-12-04T20:45:29.608Z,6.10
2023-12-04T20:51:32.657Z,5.15
2023-12-04T20:57:34.737Z,5.55
2023-12-04T21:03:37.179Z,6.07
2023-12-04T21:09:39.150Z,6.30
2023-12-04T21:15:41.119Z,5.43
2023-12-04T21:21:44.491Z,5.85
2023-12-04T21:27:46.416Z,5.07
2023-12-04T21:33:48.319Z,5.43
2023-12-04T21:39:53.039Z,6.13
2023-12-04T21:45:55.146Z,5.20
2023-12-04T21:51:57.602Z,5.85
2023-12-04T21:57:59.413Z,6.30
2023-12-04T22:04:01.324Z,5.72
2023-12-04T22:10:03.975Z,6.72
2023-12-04T22:16:17.379Z,5.93
2023-12-04T22:22:21.639Z,6.22
2023-12-04T22:28:23.446Z,6.13
2023-12-04T22:34:26.652Z,6.88
2023-12-04T22:40:29.419Z,6.53
2023-12-04T22:46:31.421Z,6.88
2023-12-04T22:52:33.171Z,7.78
2023-12-04T22:58:35.001Z,8.10
2023-12-04T23:04:36.967Z,8.55
2023-12-04T23:10:38.820Z,8.88
2023-12-04T23:16:43.989Z,8.35
2023-12-04T23:22:45.812Z,8.90
2023-12-04T23:28:48.820Z,8.70
2023-12-04T23:34:50.605Z,8.80
2023-12-04T23:40:52.389Z,7.80
2023-12-04T23:46:56.015Z,8.30
2023-12-04T23:52:58.575Z,9.02
2023-12-04T23:59:00.618Z,8.45
